Time;durP1;ratioP1;P1;durP2;ratioP2;P2;SDS_P1;SDS_P2;PMS_P1;PMS_P2;Temp;Humidity;BMP_temperature;BMP_pressure;BME280_temperature;BME280_humidity;BME280_pressure;Samples;Min_cycle;Max_cycle;Signal;HPM_P1;HPM_P2
2023/10/23 01:37:11;;;;;;;7.30;2.40;;;;;;;;;;6061154;23;20643;-94
2023/10/23 01:40:16;;;;;;;3.38;2.28;;;;;;;;;;6080258;23;20214;-93
2023/10/23 01:43:22;;;;;;;7.80;2.28;;;;;;;;;;6109970;23;20165;-93
2023/10/23 01:46:28;;;;;;;4.38;2.30;;;;;;;;;;6110061;23;20169;-93
2023/10/23 01:49:35;;;;;;;5.15;2.00;;;;;;;;;;6093413;23;20304;-92
2023/10/23 01:52:44;;;;;;;5.90;1.92;;;;;;;;;;6093231;23;20170;-92
2023/10/23 01:55:49;;;;;;;4.95;2.20;;;;;;;;;;6107887;23;20684;-93
2023/10/23 01:58:55;;;;;;;4.40;2.30;;;;;;;;;;6108220;23;20230;-92
2023/10/23 02:02:00;;;;;;;8.43;2.88;;;;;;;;;;6107734;23;20177;-93
2023/10/23 02:05:05;;;;;;;3.42;2.08;;;;;;;;;;6092758;23;20158;-92
2023/10/23 02:08:11;;;;;;;3.88;2.40;;;;;;;;;;6111993;23;20190;-93
2023/10/23 02:11:17;;;;;;;8.77;2.47;;;;;;;;;;6110331;23;20197;-93
2023/10/23 02:14:22;;;;;;;4.85;2.53;;;;;;;;;;6110740;23;20173;-93
2023/10/23 02:17:27;;;;;;;3.75;2.40;;;;;;;;;;6110348;23;20169;-90
2023/10/23 02:20:33;;;;;;;4.07;2.75;;;;;;;;;;6109099;23;20500;-93
2023/10/23 02:23:40;;;;;;;3.08;2.17;;;;;;;;;;6109923;23;20198;-91
2023/10/23 02:26:46;;;;;;;7.35;2.38;;;;;;;;;;6093506;23;20181;-92
2023/10/23 02:29:52;;;;;;;4.38;2.38;;;;;;;;;;6110009;23;20230;-91
2023/10/23 02:32:57;;;;;;;5.72;2.40;;;;;;;;;;6093370;23;20225;-94
2023/10/23 05:52:20;;;;;;;6.30;3.33;;;;;;;;;;6070680;23;20254;-91
2023/10/23 05:55:26;;;;;;;9.83;4.87;;;;;;;;;;6100468;23;20227;-94
2023/10/23 05:58:32;;;;;;;12.43;4.57;;;;;;;;;;6114826;23;20625;-91
2023/10/23 06:01:42;;;;;;;6.63;3.10;;;;;;;;;;6115171;23;20245;-91
2023/10/23 06:04:48;;;;;;;7.17;3.50;;;;;;;;;;6115824;23;20171;-93
2023/10/23 06:07:55;;;;;;;7.13;3.37;;;;;;;;;;6115379;23;20215;-92
2023/10/23 06:11:00;;;;;;;12.07;3.33;;;;;;;;;;6113925;23;20205;-93
2023/10/23 06:14:06;;;;;;;7.40;3.87;;;;;;;;;;6098282;23;20165;-92
2023/10/23 06:17:11;;;;;;;16.30;4.33;;;;;;;;;;6097203;23;20174;-93
2023/10/23 06:20:17;;;;;;;8.83;4.07;;;;;;;;;;6113900;23;20170;-90
2023/10/23 06:23:24;;;;;;;7.63;3.50;;;;;;;;;;6113996;23;20672;-89
2023/10/23 06:26:29;;;;;;;6.10;3.50;;;;;;;;;;6112364;23;20174;-92
2023/10/23 06:29:34;;;;;;;6.07;3.50;;;;;;;;;;6096942;23;20175;-90
2023/10/23 06:32:41;;;;;;;8.90;3.73;;;;;;;;;;6094940;23;20177;-90
2023/10/23 06:35:46;;;;;;;14.33;4.23;;;;;;;;;;6112476;23;20199;-90
2023/10/23 06:38:57;;;;;;;9.37;4.37;;;;;;;;;;6114433;23;20210;-90
2023/10/23 06:42:02;;;;;;;10.50;4.30;;;;;;;;;;6114206;23;20174;-91
2023/10/23 06:45:08;;;;;;;9.17;3.50;;;;;;;;;;6096702;23;20177;-90
2023/10/23 06:48:15;;;;;;;7.97;3.30;;;;;;;;;;6098714;23;20202;-92
2023/10/23 06:51:21;;;;;;;21.33;3.07;;;;;;;;;;6113368;23;20307;-91
2023/10/23 06:54:28;;;;;;;12.50;4.40;;;;;;;;;;6096599;23;20187;-92
2023/10/23 06:57:33;;;;;;;14.63;4.30;;;;;;;;;;6112667;23;20174;-90
2023/10/23 07:00:38;;;;;;;9.30;3.70;;;;;;;;;;6110825;23;20441;-92
2023/10/23 07:03:44;;;;;;;18.90;5.67;;;;;;;;;;6096487;23;20173;-91
2023/10/23 07:06:49;;;;;;;11.63;4.63;;;;;;;;;;6111497;23;20223;-90
2023/10/23 07:10:00;;;;;;;7.77;3.90;;;;;;;;;;6110471;23;20186;-92
2023/10/23 07:13:05;;;;;;;10.38;4.32;;;;;;;;;;6111297;23;20209;-90
2023/10/23 07:16:10;;;;;;;8.50;3.67;;;;;;;;;;6094642;23;20211;-89
2023/10/23 07:19:16;;;;;;;7.28;3.90;;;;;;;;;;6112325;23;20165;-90
2023/10/23 07:22:22;;;;;;;9.23;4.10;;;;;;;;;;6110983;23;20175;-91
2023/10/23 07:25:29;;;;;;;8.95;3.63;;;;;;;;;;6111572;23;20202;-91
2023/10/23 07:28:34;;;;;;;7.30;3.53;;;;;;;;;;6112369;23;20169;-91
2023/10/23 07:31:39;;;;;;;7.80;3.72;;;;;;;;;;6095440;23;20197;-90
2023/10/23 07:34:44;;;;;;;10.00;4.30;;;;;;;;;;6114877;23;20157;-90
2023/10/23 07:37:49;;;;;;;11.85;4.00;;;;;;;;;;6114009;23;20221;-91
2023/10/23 07:40:57;;;;;;;5.38;3.30;;;;;;;;;;6111163;23;20165;-91
2023/10/23 07:44:02;;;;;;;7.55;3.22;;;;;;;;;;6095060;23;20633;-89
2023/10/23 07:47:07;;;;;;;7.80;3.50;;;;;;;;;;6111419;23;20194;-90
2023/10/23 07:50:13;;;;;;;8.98;3.75;;;;;;;;;;6094883;23;20157;-90
2023/10/23 07:53:18;;;;;;;5.80;3.15;;;;;;;;;;6116934;23;20199;-90
2023/10/23 07:56:25;;;;;;;6.05;3.47;;;;;;;;;;6094536;23;20229;-92
2023/10/23 07:59:31;;;;;;;8.23;4.18;;;;;;;;;;6111018;23;20166;-92
2023/10/23 08:02:35;;;;;;;20.02;4.28;;;;;;;;;;6112098;23;20174;-91
2023/10/23 08:05:42;;;;;;;11.93;4.20;;;;;;;;;;6097856;23;20195;-92
2023/10/23 08:08:47;;;;;;;7.07;3.97;;;;;;;;;;6093957;23;20169;-90
2023/10/23 08:11:54;;;;;;;10.05;4.60;;;;;;;;;;6108847;23;20193;-90
2023/10/23 08:14:59;;;;;;;10.82;4.32;;;;;;;;;;6092490;23;20206;-90
2023/10/23 08:18:04;;;;;;;9.73;4.63;;;;;;;;;;6113579;23;20178;-90
2023/10/23 08:21:10;;;;;;;8.93;4.97;;;;;;;;;;6109990;23;20218;-89
2023/10/23 08:24:16;;;;;;;9.82;4.88;;;;;;;;;;6095492;23;20614;-90
2023/10/23 08:27:25;;;;;;;9.40;5.30;;;;;;;;;;6111026;23;20253;-90
2023/10/23 08:30:31;;;;;;;9.75;4.93;;;;;;;;;;6111302;23;20178;-89
2023/10/23 08:33:38;;;;;;;10.27;5.35;;;;;;;;;;6109816;23;20174;-91
2023/10/23 08:36:43;;;;;;;8.27;4.90;;;;;;;;;;6095298;23;20175;-91
2023/10/23 08:39:48;;;;;;;174.88;58.28;;;;;;;;;;6112638;23;20210;-92
2023/10/23 08:42:55;;;;;;;14.20;6.90;;;;;;;;;;6115770;23;20174;-90
2023/10/23 08:46:01;;;;;;;10.95;4.40;;;;;;;;;;6096012;23;20170;-91
2023/10/23 08:49:06;;;;;;;23.80;9.63;;;;;;;;;;6111536;23;20172;-92
2023/10/23 08:52:12;;;;;;;9.07;4.70;;;;;;;;;;6111831;23;20261;-91
2023/10/23 08:55:21;;;;;;;9.43;3.72;;;;;;;;;;6094373;23;20181;-92
2023/10/23 08:58:33;;;;;;;8.75;3.83;;;;;;;;;;6095327;23;20262;-92
2023/10/23 09:04:59;;;;;;;8.38;4.70;;;;;;;;;;6098114;23;20191;-93
2023/10/23 09:08:05;;;;;;;10.18;3.78;;;;;;;;;;6110871;23;20169;-92
2023/10/23 09:11:10;;;;;;;8.93;3.90;;;;;;;;;;6093073;23;20646;-92
2023/10/23 09:14:24;;;;;;;7.15;3.78;;;;;;;;;;6109998;23;20174;-91
2023/10/23 09:17:30;;;;;;;7.50;4.05;;;;;;;;;;6094773;23;20166;-92
2023/10/23 09:20:35;;;;;;;8.35;4.53;;;;;;;;;;6112920;23;20255;-90
2023/10/23 09:23:50;;;;;;;9.95;4.75;;;;;;;;;;6113279;23;20150;-91
2023/10/23 09:26:55;;;;;;;9.48;4.70;;;;;;;;;;6113863;23;20165;-92
2023/10/23 09:30:08;;;;;;;13.50;5.00;;;;;;;;;;6095938;23;20222;-90
2023/10/23 09:33:14;;;;;;;8.85;4.85;;;;;;;;;;6113910;23;20184;-91
2023/10/23 09:36:20;;;;;;;7.63;4.70;;;;;;;;;;6093847;23;20219;-90
2023/10/23 09:39:29;;;;;;;11.32;5.35;;;;;;;;;;6111660;23;20259;-90
2023/10/23 09:42:34;;;;;;;8.85;4.95;;;;;;;;;;6111410;23;20174;-92
2023/10/23 09:45:40;;;;;;;8.60;4.13;;;;;;;;;;6111363;23;20350;-91
2023/10/23 09:48:49;;;;;;;9.10;4.95;;;;;;;;;;6099019;23;20174;-93
2023/10/23 09:51:57;;;;;;;10.25;4.32;;;;;;;;;;6096468;23;20214;-91
2023/10/23 09:55:03;;;;;;;8.48;4.90;;;;;;;;;;6112407;23;20165;-91
2023/10/23 09:58:14;;;;;;;6.80;3.85;;;;;;;;;;6112003;23;20626;-91
2023/10/23 10:01:22;;;;;;;8.35;3.92;;;;;;;;;;6111725;23;20167;-92
2023/10/23 10:04:30;;;;;;;8.48;3.72;;;;;;;;;;6095983;23;20158;-91
2023/10/23 10:07:38;;;;;;;12.73;6.18;;;;;;;;;;6113619;23;20282;-92
2023/10/23 10:10:44;;;;;;;7.20;3.85;;;;;;;;;;6095188;23;20170;-91
2023/10/23 12:10:08;;;;;;;4.82;2.20;;;;;;;;;;6080961;23;20210;-92
2023/10/23 12:13:14;;;;;;;6.53;2.70;;;;;;;;;;6111848;23;20210;-91
2023/10/23 12:16:19;;;;;;;5.18;1.70;;;;;;;;;;6088406;23;20239;-90
2023/10/23 12:19:24;;;;;;;5.65;1.92;;;;;;;;;;6090716;23;20564;-90
2023/10/23 12:22:30;;;;;;;5.15;1.63;;;;;;;;;;6094278;23;20246;-91
2023/10/23 12:25:36;;;;;;;4.75;1.20;;;;;;;;;;6112523;23;20176;-90
2023/10/23 12:28:42;;;;;;;2.67;1.30;;;;;;;;;;6110725;23;20173;-91
2023/10/23 12:31:46;;;;;;;3.47;1.27;;;;;;;;;;6112682;23;20193;-91
2023/10/23 12:34:57;;;;;;;4.43;1.30;;;;;;;;;;6099133;23;20194;-93
2023/10/23 12:38:02;;;;;;;4.32;1.90;;;;;;;;;;6113259;23;20182;-90
2023/10/23 12:41:09;;;;;;;4.60;1.60;;;;;;;;;;6112911;23;20169;-90
2023/10/23 12:44:14;;;;;;;2.38;1.20;;;;;;;;;;6097680;23;20392;-91
2023/10/23 12:47:21;;;;;;;2.92;1.75;;;;;;;;;;6115319;23;20191;-92
2023/10/23 12:50:27;;;;;;;4.07;1.77;;;;;;;;;;6097526;23;20246;-91
2023/10/23 12:53:32;;;;;;;3.05;1.30;;;;;;;;;;6113144;23;20197;-92
2023/10/23 12:56:40;;;;;;;2.63;1.27;;;;;;;;;;6111148;23;20220;-88
2023/10/23 12:59:45;;;;;;;6.40;1.70;;;;;;;;;;6113301;23;20199;-90
2023/10/23 13:02:51;;;;;;;2.67;1.42;;;;;;;;;;6095634;23;20175;-90
2023/10/23 13:05:56;;;;;;;5.22;2.80;;;;;;;;;;6114622;23;20170;-91
2023/10/23 13:09:00;;;;;;;3.85;1.48;;;;;;;;;;6111133;23;20170;-91
2023/10/23 13:12:07;;;;;;;5.95;1.95;;;;;;;;;;6110735;23;20192;-91
2023/10/23 13:15:13;;;;;;;2.72;1.40;;;;;;;;;;6095843;23;20195;-91
2023/10/23 13:18:18;;;;;;;3.05;1.10;;;;;;;;;;6110367;23;20493;-91
2023/10/23 13:21:23;;;;;;;4.95;1.40;;;;;;;;;;6112144;23;20170;-91
2023/10/23 13:24:28;;;;;;;2.67;1.20;;;;;;;;;;6096391;23;20231;-92
2023/10/23 13:27:35;;;;;;;6.03;1.10;;;;;;;;;;6095111;23;20178;-90
2023/10/23 13:30:40;;;;;;;4.78;1.40;;;;;;;;;;6110892;23;20254;-91
2023/10/23 13:33:46;;;;;;;3.72;1.85;;;;;;;;;;6111160;23;20173;-91
2023/10/23 13:36:51;;;;;;;3.08;1.30;;;;;;;;;;6110400;23;20194;-91
2023/10/23 13:39:56;;;;;;;1.55;1.00;;;;;;;;;;6111797;23;20174;-92
2023/10/23 13:43:03;;;;;;;2.92;1.08;;;;;;;;;;6112514;23;20174;-91
2023/10/23 13:46:08;;;;;;;5.47;1.70;;;;;;;;;;6113333;23;20626;-92
2023/10/23 13:49:14;;;;;;;9.07;2.05;;;;;;;;;;6113372;23;20244;-90
2023/10/23 13:52:20;;;;;;;8.52;2.20;;;;;;;;;;6112481;23;20206;-87
2023/10/23 13:55:25;;;;;;;5.57;2.05;;;;;;;;;;6096699;23;20170;-92
2023/10/23 13:58:32;;;;;;;6.13;3.17;;;;;;;;;;6096836;23;20174;-88
2023/10/23 14:01:39;;;;;;;4.03;1.27;;;;;;;;;;6113903;23;20687;-90
2023/10/23 14:04:44;;;;;;;3.20;1.27;;;;;;;;;;6115291;23;20218;-91
2023/10/23 14:07:50;;;;;;;4.53;1.25;;;;;;;;;;6095843;23;20165;-90
2023/10/23 14:10:55;;;;;;;3.35;1.20;;;;;;;;;;6113991;23;20181;-91
2023/10/23 14:14:02;;;;;;;5.35;1.48;;;;;;;;;;6096722;23;20211;-91
2023/10/23 14:17:13;;;;;;;3.58;1.10;;;;;;;;;;6098448;23;20248;-92
2023/10/23 14:20:19;;;;;;;4.50;1.50;;;;;;;;;;6097322;23;20165;-88
2023/10/23 14:23:26;;;;;;;6.28;1.50;;;;;;;;;;6111375;23;20235;-90
2023/10/23 14:26:32;;;;;;;4.97;1.58;;;;;;;;;;6110833;23;20174;-92
2023/10/23 14:29:40;;;;;;;2.65;1.50;;;;;;;;;;6094932;23;20181;-87
2023/10/23 14:32:45;;;;;;;3.72;1.35;;;;;;;;;;6113067;23;20197;-89
2023/10/23 14:35:51;;;;;;;5.88;1.88;;;;;;;;;;6096718;23;20191;-90
2023/10/23 14:38:59;;;;;;;3.25;1.90;;;;;;;;;;6096321;23;20158;-90
2023/10/23 14:42:05;;;;;;;8.07;2.05;;;;;;;;;;6098797;23;20157;-91
2023/10/23 14:45:25;;;;;;;6.40;2.45;;;;;;;;;;6098808;23;20181;-91
2023/10/23 14:48:33;;;;;;;4.70;1.90;;;;;;;;;;6100161;23;20166;-92
2023/10/23 14:51:39;;;;;;;4.32;2.00;;;;;;;;;;6100302;23;20214;-92
2023/10/23 14:54:45;;;;;;;4.70;1.95;;;;;;;;;;6115651;23;20174;-89
2023/10/23 14:57:51;;;;;;;9.93;2.00;;;;;;;;;;6097237;23;20178;-91
2023/10/23 15:00:57;;;;;;;7.07;2.00;;;;;;;;;;6114140;23;20178;-91
2023/10/23 15:04:05;;;;;;;6.13;2.20;;;;;;;;;;6098594;23;20177;-92
2023/10/23 15:07:11;;;;;;;7.45;2.20;;;;;;;;;;6116016;23;20218;-90
2023/10/23 18:30:29;;;;;;;11.70;5.05;;;;;;;;;;6098281;23;20185;-91
2023/10/23 18:33:35;;;;;;;9.93;4.78;;;;;;;;;;6114937;23;20500;-90
2023/10/23 18:36:41;;;;;;;13.68;6.20;;;;;;;;;;6113913;23;20198;-90
2023/10/23 18:39:47;;;;;;;14.93;6.78;;;;;;;;;;6097435;23;20166;-90
2023/10/23 18:46:17;;;;;;;16.98;7.93;;;;;;;;;;6098133;23;20170;-92
2023/10/23 18:49:26;;;;;;;18.65;8.75;;;;;;;;;;6113121;23;20166;-90
2023/10/23 18:56:06;;;;;;;14.43;7.40;;;;;;;;;;6102932;23;20186;-93
2023/10/23 18:59:27;;;;;;;18.50;7.20;;;;;;;;;;6101474;23;20692;-91
2023/10/23 19:02:35;;;;;;;13.82;6.90;;;;;;;;;;6102036;23;20162;-90
2023/10/23 19:05:45;;;;;;;20.38;8.20;;;;;;;;;;6101795;23;20190;-90
2023/10/23 19:08:54;;;;;;;18.83;7.28;;;;;;;;;;6102503;23;20157;-89
2023/10/23 19:11:59;;;;;;;15.73;6.05;;;;;;;;;;6117474;23;20251;-90
2023/10/23 19:15:15;;;;;;;13.95;6.53;;;;;;;;;;6102748;23;20194;-90
2023/10/23 19:18:37;;;;;;;17.95;6.53;;;;;;;;;;6117466;23;20164;-91
2023/10/23 19:21:45;;;;;;;12.35;5.57;;;;;;;;;;6100029;23;20272;-90
2023/10/23 19:24:51;;;;;;;9.55;5.35;;;;;;;;;;6115971;23;20203;-89
2023/10/23 19:27:58;;;;;;;13.48;6.25;;;;;;;;;;6101230;23;20198;-90
2023/10/23 19:31:22;;;;;;;19.40;5.97;;;;;;;;;;6119022;23;20186;-91
2023/10/23 19:34:30;;;;;;;13.13;6.57;;;;;;;;;;6098560;23;20242;-91
2023/10/23 19:37:42;;;;;;;17.80;7.22;;;;;;;;;;6117360;23;20181;-91
2023/10/23 19:40:56;;;;;;;13.98;6.53;;;;;;;;;;6116018;23;20161;-90
2023/10/23 19:44:02;;;;;;;14.45;6.63;;;;;;;;;;6098718;23;20173;-92
2023/10/23 19:47:09;;;;;;;20.88;6.72;;;;;;;;;;6116451;23;20210;-92
2023/10/23 19:50:16;;;;;;;17.13;8.20;;;;;;;;;;6098759;23;20189;-89
2023/10/23 19:53:23;;;;;;;19.75;7.32;;;;;;;;;;6115419;23;20641;-91
2023/10/23 19:56:34;;;;;;;14.25;5.93;;;;;;;;;;6100087;23;20165;-90
2023/10/23 19:59:42;;;;;;;13.63;6.60;;;;;;;;;;6098764;23;20173;-91
2023/10/23 20:02:50;;;;;;;11.05;6.20;;;;;;;;;;6114773;23;20181;-90
2023/10/23 20:05:55;;;;;;;12.40;6.38;;;;;;;;;;6114487;23;20187;-92
2023/10/23 20:09:03;;;;;;;12.73;5.60;;;;;;;;;;6113912;23;20185;-89
2023/10/23 20:12:08;;;;;;;15.75;6.25;;;;;;;;;;6114289;23;20174;-91
2023/10/23 20:15:15;;;;;;;11.75;5.75;;;;;;;;;;6114927;23;20178;-91
2023/10/23 20:18:21;;;;;;;14.75;6.03;;;;;;;;;;6097051;23;20165;-90
2023/10/23 20:21:31;;;;;;;15.57;6.63;;;;;;;;;;6100862;23;20166;-92
2023/10/23 20:24:47;;;;;;;12.90;6.00;;;;;;;;;;6068630;23;20171;-91
2023/10/23 20:27:54;;;;;;;15.13;7.00;;;;;;;;;;6086143;23;20219;-90
2023/10/23 20:30:59;;;;;;;14.88;6.80;;;;;;;;;;6069116;23;20177;-90
2023/10/23 20:34:04;;;;;;;13.02;5.72;;;;;;;;;;6088089;23;20218;-90
2023/10/23 20:37:10;;;;;;;12.60;5.38;;;;;;;;;;6071541;23;20174;-88
2023/10/23 20:40:17;;;;;;;11.13;4.90;;;;;;;;;;6071779;23;20615;-90
2023/10/23 20:43:31;;;;;;;10.60;5.47;;;;;;;;;;6087708;23;20307;-89
2023/10/23 20:46:37;;;;;;;14.40;6.18;;;;;;;;;;6091061;23;20179;-90
2023/10/23 20:49:44;;;;;;;16.08;6.07;;;;;;;;;;6090160;23;20196;-89
2023/10/23 20:52:54;;;;;;;10.75;5.43;;;;;;;;;;6073076;23;20170;-88
2023/10/23 20:56:11;;;;;;;10.10;5.40;;;;;;;;;;6073527;23;20229;-90
2023/10/23 20:59:16;;;;;;;11.25;5.22;;;;;;;;;;6073079;23;20166;-89
2023/10/23 21:02:22;;;;;;;15.68;6.18;;;;;;;;;;6089896;23;20174;-91
2023/10/23 21:05:28;;;;;;;10.18;5.30;;;;;;;;;;6089779;23;20212;-88
2023/10/23 21:08:39;;;;;;;10.38;5.20;;;;;;;;;;6074125;23;20175;-91
2023/10/23 21:11:47;;;;;;;12.13;4.82;;;;;;;;;;6089866;23;20154;-91
2023/10/23 21:14:55;;;;;;;9.30;4.97;;;;;;;;;;6089365;23;20195;-90
2023/10/23 21:18:09;;;;;;;10.95;5.18;;;;;;;;;;6070856;23;20219;-89
2023/10/23 21:21:14;;;;;;;16.52;5.47;;;;;;;;;;6070373;23;20166;-90
2023/10/23 21:24:19;;;;;;;13.20;5.20;;;;;;;;;;6071849;23;20184;-89
2023/10/23 21:27:28;;;;;;;12.00;5.82;;;;;;;;;;6072367;23;20191;-90
2023/10/23 21:30:33;;;;;;;12.10;5.20;;;;;;;;;;6069740;23;20171;-90
2023/10/23 21:33:38;;;;;;;12.30;5.55;;;;;;;;;;6086817;23;20210;-91
2023/10/23 21:36:44;;;;;;;10.50;5.15;;;;;;;;;;6070510;23;20223;-89
2023/10/23 21:39:55;;;;;;;11.52;4.95;;;;;;;;;;6088405;23;20174;-90
2023/10/23 21:43:04;;;;;;;8.60;4.53;;;;;;;;;;6071770;23;20239;-89
2023/10/23 21:46:10;;;;;;;9.25;4.63;;;;;;;;;;6069962;23;20250;-89
2023/10/23 21:49:15;;;;;;;9.65;5.60;;;;;;;;;;6073445;23;20204;-90
2023/10/23 21:52:20;;;;;;;12.60;4.90;;;;;;;;;;6069695;23;20174;-92
2023/10/23 21:55:26;;;;;;;14.38;5.13;;;;;;;;;;6070834;23;20195;-91
2023/10/23 21:58:34;;;;;;;9.18;4.53;;;;;;;;;;6070059;23;20178;-90
2023/10/23 22:01:42;;;;;;;10.00;5.15;;;;;;;;;;6068469;23;20178;-91
2023/10/23 22:04:49;;;;;;;7.43;4.55;;;;;;;;;;6086324;23;20173;-91
2023/10/23 22:07:56;;;;;;;12.07;5.05;;;;;;;;;;6071090;23;20174;-88
2023/10/23 22:11:02;;;;;;;10.88;4.90;;;;;;;;;;6087520;23;20178;-90
2023/10/23 22:14:11;;;;;;;10.02;4.45;;;;;;;;;;6071835;23;20345;-90
2023/10/23 22:17:16;;;;;;;14.07;6.00;;;;;;;;;;6072094;23;20219;-91
2023/10/23 22:20:22;;;;;;;12.82;5.00;;;;;;;;;;6069749;23;20174;-90
2023/10/23 22:23:27;;;;;;;11.13;5.40;;;;;;;;;;6068956;23;20158;-92
2023/10/23 22:26:33;;;;;;;12.38;6.25;;;;;;;;;;6068606;23;20193;-91
2023/10/23 22:29:40;;;;;;;18.02;7.28;;;;;;;;;;6069668;23;20166;-90
2023/10/23 22:32:46;;;;;;;12.38;6.25;;;;;;;;;;6070263;23;20270;-90
2023/10/23 22:35:51;;;;;;;15.05;6.70;;;;;;;;;;6069235;23;20227;-91
2023/10/23 22:38:56;;;;;;;13.43;7.07;;;;;;;;;;6068224;23;20161;-91
2023/10/23 22:42:02;;;;;;;13.23;5.65;;;;;;;;;;6068243;23;20666;-90
2023/10/23 22:45:10;;;;;;;12.90;5.90;;;;;;;;;;6069667;23;20166;-91
2023/10/23 22:48:16;;;;;;;11.77;5.60;;;;;;;;;;6085383;23;20170;-92
2023/10/23 22:51:23;;;;;;;10.75;5.78;;;;;;;;;;6068440;23;20188;-91
2023/10/23 22:54:29;;;;;;;10.73;5.72;;;;;;;;;;6066891;23;20465;-91
2023/10/23 22:57:38;;;;;;;10.82;6.45;;;;;;;;;;6065856;23;20215;-90
2023/10/23 23:00:45;;;;;;;11.68;5.80;;;;;;;;;;6082153;23;20178;-90
2023/10/23 23:03:50;;;;;;;9.60;5.00;;;;;;;;;;6066012;23;20163;-91
2023/10/23 23:07:00;;;;;;;13.43;5.50;;;;;;;;;;6066138;23;20170;-91
2023/10/23 23:10:06;;;;;;;11.45;5.13;;;;;;;;;;6067395;23;20150;-91
2023/10/23 23:13:11;;;;;;;10.85;5.30;;;;;;;;;;6067479;23;20174;-91
2023/10/23 23:16:19;;;;;;;12.73;5.60;;;;;;;;;;6067216;23;20166;-91
2023/10/23 23:19:27;;;;;;;12.90;5.07;;;;;;;;;;6069517;23;20179;-91
2023/10/23 23:22:33;;;;;;;12.13;4.80;;;;;;;;;;6068359;23;20169;-91
2023/10/23 23:25:38;;;;;;;15.30;4.95;;;;;;;;;;6066861;23;20186;-91
2023/10/23 23:28:44;;;;;;;11.18;5.00;;;;;;;;;;6067143;23;20171;-92
2023/10/23 23:31:50;;;;;;;13.90;5.80;;;;;;;;;;6067088;23;20173;-91
2023/10/23 23:34:55;;;;;;;10.63;5.10;;;;;;;;;;6064319;23;20243;-93
2023/10/23 23:38:01;;;;;;;9.43;5.15;;;;;;;;;;6063989;23;20242;-90
2023/10/23 23:41:07;;;;;;;10.95;5.00;;;;;;;;;;6063983;23;20150;-92
2023/10/23 23:44:13;;;;;;;10.90;4.75;;;;;;;;;;6083255;23;20247;-90
2023/10/23 23:47:19;;;;;;;18.17;8.43;;;;;;;;;;6066366;23;20166;-91
2023/10/23 23:50:25;;;;;;;11.93;5.30;;;;;;;;;;6067146;23;20189;-90
2023/10/23 23:53:29;;;;;;;15.20;5.03;;;;;;;;;;6066509;23;20170;-91
2023/10/23 23:56:35;;;;;;;13.88;5.22;;;;;;;;;;6066337;23;20183;-92
2023/10/23 23:59:40;;;;;;;12.50;4.35;;;;;;;;;;6064721;23;20166;-90
